createdAt,value
2019-02-26T00:00:59.728Z,3.50
2019-02-26T00:03:36.619Z,3.50
2019-02-26T00:06:05.534Z,3.50
2019-02-26T00:08:34.449Z,3.50
2019-02-26T00:11:03.752Z,3.50
2019-02-26T00:13:34.587Z,3.50
2019-02-26T00:16:07.671Z,3.50
2019-02-26T00:18:36.300Z,3.60
2019-02-26T00:21:05.221Z,3.60
2019-02-26T00:23:34.106Z,3.60
2019-02-26T00:26:03.031Z,3.70
2019-02-26T00:28:31.939Z,3.70
2019-02-26T00:31:01.763Z,3.80
2019-02-26T00:33:31.394Z,3.80
2019-02-26T00:36:00.298Z,3.90
2019-02-26T00:38:29.207Z,3.90
2019-02-26T00:41:00.016Z,3.90
2019-02-26T00:43:30.186Z,3.90
2019-02-26T00:46:00.832Z,3.90
2019-02-26T00:48:31.575Z,3.90
2019-02-26T00:51:01.063Z,3.90
2019-02-26T00:53:32.969Z,3.90
2019-02-26T00:56:03.203Z,3.90
2019-02-26T00:58:34.884Z,3.90
2019-02-26T01:01:02.682Z,3.90
2019-02-26T01:03:31.589Z,3.80
2019-02-26T01:06:01.610Z,3.90
2019-02-26T01:08:31.042Z,3.80
2019-02-26T01:11:01.565Z,3.80
2019-02-26T01:13:32.188Z,3.90
2019-02-26T01:16:01.025Z,3.90
2019-02-26T01:18:29.929Z,3.90
2019-02-26T01:21:00.301Z,3.90
2019-02-26T01:23:29.400Z,4.00
2019-02-26T01:25:58.309Z,4.00
2019-02-26T01:28:29.200Z,4.00
2019-02-26T01:30:58.391Z,4.00
2019-02-26T01:33:30.192Z,4.00
2019-02-26T01:36:00.285Z,4.00
2019-02-26T01:38:29.499Z,4.00
2019-02-26T01:40:58.410Z,4.00
2019-02-26T01:43:27.319Z,4.00
2019-02-26T01:45:57.938Z,4.00
2019-02-26T01:48:26.872Z,4.00
2019-02-26T01:50:57.450Z,4.00
2019-02-26T01:53:27.377Z,4.00
2019-02-26T01:55:56.459Z,4.00
2019-02-26T01:58:25.367Z,4.00
2019-02-26T02:00:55.559Z,4.00
2019-02-26T02:03:25.421Z,4.00
2019-02-26T02:05:55.472Z,4.00
2019-02-26T02:08:25.355Z,4.00
2019-02-26T02:10:57.111Z,4.00
2019-02-26T02:13:28.254Z,4.00
2019-02-26T02:15:55.397Z,4.00
2019-02-26T02:18:25.906Z,4.00
2019-02-26T02:20:54.952Z,4.10
2019-02-26T02:23:25.863Z,4.10
2019-02-26T02:25:59.763Z,4.10
2019-02-26T02:28:26.344Z,4.10
2019-02-26T02:30:56.527Z,4.00
2019-02-26T02:33:27.438Z,4.10
2019-02-26T02:35:56.079Z,4.10
2019-02-26T02:38:24.987Z,4.10
2019-02-26T02:40:54.865Z,4.10
2019-02-26T02:43:25.279Z,4.10
2019-02-26T02:45:56.377Z,4.00
2019-02-26T02:48:24.928Z,4.00
2019-02-26T02:50:53.819Z,3.90
2019-02-26T02:53:23.953Z,3.90
2019-02-26T02:55:53.273Z,3.90
2019-02-26T02:58:23.925Z,3.90
2019-02-26T03:00:54.228Z,3.80
2019-02-26T03:03:23.271Z,3.80
2019-02-26T03:05:52.178Z,3.80
2019-02-26T03:08:22.395Z,3.80
2019-02-26T03:10:51.734Z,3.80
2019-02-26T03:13:22.877Z,3.80
2019-02-26T03:15:53.532Z,3.80
2019-02-26T03:18:21.838Z,3.70
2019-02-26T03:20:51.424Z,3.70
2019-02-26T03:23:21.297Z,3.70
2019-02-26T03:25:52.237Z,3.70
2019-02-26T03:28:20.741Z,3.60
2019-02-26T03:30:49.650Z,3.60
2019-02-26T03:33:18.560Z,3.60
2019-02-26T03:35:47.566Z,3.60
2019-02-26T03:38:18.146Z,3.60
2019-02-26T03:40:49.352Z,3.60
2019-02-26T03:43:17.667Z,3.60
2019-02-26T03:45:47.994Z,3.50
2019-02-26T03:48:20.339Z,3.50
2019-02-26T03:50:47.665Z,3.50
2019-02-26T03:53:16.573Z,3.60
2019-02-26T03:55:45.583Z,3.60
2019-02-26T03:58:14.500Z,3.60
2019-02-26T04:00:44.750Z,3.60
2019-02-26T04:03:16.771Z,3.60
2019-02-26T04:05:45.536Z,3.60
2019-02-26T04:08:16.329Z,3.60
2019-02-26T04:10:47.227Z,3.60
2019-02-26T04:13:15.510Z,3.60
2019-02-26T04:15:44.417Z,3.70
2019-02-26T04:18:13.429Z,3.70
2019-02-26T04:20:44.245Z,3.70
2019-02-26T04:23:14.211Z,3.70
2019-02-26T04:25:54.060Z,3.70
2019-02-26T04:28:40.368Z,3.70
2019-02-26T04:31:20.444Z,3.70
2019-02-26T04:34:05.288Z,3.70
2019-02-26T04:36:59.607Z,3.70
2019-02-26T04:39:50.819Z,3.70
2019-02-26T04:42:38.399Z,3.60
2019-02-26T04:45:23.533Z,3.70
2019-02-26T04:48:01.247Z,3.70
2019-02-26T04:50:33.098Z,3.70
2019-02-26T04:53:04.442Z,3.70
2019-02-26T04:55:32.912Z,3.70
2019-02-26T04:58:01.775Z,3.70
2019-02-26T05:00:33.918Z,3.60
2019-02-26T05:03:01.239Z,3.60
2019-02-26T05:05:31.976Z,3.60
2019-02-26T05:08:00.899Z,3.60
2019-02-26T05:10:31.808Z,3.60
2019-02-26T05:13:03.171Z,3.60
2019-02-26T05:15:33.148Z,3.60
2019-02-26T05:18:01.441Z,3.50
2019-02-26T05:20:31.413Z,3.60
2019-02-26T05:23:02.636Z,3.60
2019-02-26T05:25:34.244Z,3.70
2019-02-26T05:28:03.805Z,3.70
2019-02-26T05:30:32.530Z,3.80
2019-02-26T05:33:02.966Z,3.90
2019-02-26T05:35:31.985Z,3.90
2019-02-26T05:38:03.087Z,3.90
2019-02-26T05:40:31.434Z,4.00
2019-02-26T05:43:01.883Z,4.00
2019-02-26T05:45:33.077Z,4.10
2019-02-26T05:48:01.433Z,4.10
2019-02-26T05:50:34.658Z,4.10
2019-02-26T05:53:04.644Z,4.10
2019-02-26T05:55:32.457Z,4.10
2019-02-26T05:58:01.348Z,4.10
2019-02-26T06:00:33.089Z,4.00
2019-02-26T06:03:00.853Z,4.00
2019-02-26T06:05:29.831Z,3.90
2019-02-26T06:07:58.734Z,3.90
2019-02-26T06:10:29.842Z,4.00
2019-02-26T06:12:58.187Z,4.00
2019-02-26T06:15:28.834Z,4.00
2019-02-26T06:17:57.640Z,4.00
2019-02-26T06:20:28.709Z,4.00
2019-02-26T06:22:57.095Z,3.90
2019-02-26T06:25:26.002Z,3.90
2019-02-26T06:27:54.909Z,3.90
2019-02-26T06:30:23.823Z,3.90
2019-02-26T06:32:52.724Z,3.90
2019-02-26T06:35:21.735Z,3.90
2019-02-26T06:37:50.629Z,3.90
2019-02-26T06:40:19.551Z,3.90
2019-02-26T06:42:48.458Z,4.00
2019-02-26T06:45:17.503Z,4.10
2019-02-26T06:47:48.416Z,4.20
2019-02-26T06:50:18.895Z,4.20
2019-02-26T06:52:50.285Z,4.20
2019-02-26T06:55:18.013Z,4.20
2019-02-26T06:57:49.771Z,4.30
2019-02-26T07:00:21.785Z,4.30
2019-02-26T07:02:49.550Z,4.20
2019-02-26T07:05:18.452Z,4.20
2019-02-26T07:07:47.360Z,4.20
2019-02-26T07:10:18.772Z,4.20
2019-02-26T07:12:48.852Z,4.20
2019-02-26T07:15:17.465Z,4.20
2019-02-26T07:17:46.429Z,4.20
2019-02-26T07:20:15.481Z,4.20
2019-02-26T07:22:46.798Z,4.20
2019-02-26T07:25:16.581Z,4.20
2019-02-26T07:27:45.480Z,4.20
2019-02-26T07:30:14.388Z,4.20
2019-02-26T07:32:45.651Z,4.10
2019-02-26T07:35:16.624Z,4.10
2019-02-26T07:37:44.594Z,4.20
2019-02-26T07:40:15.865Z,4.20
2019-02-26T07:42:46.575Z,4.20
2019-02-26T07:45:17.859Z,4.20
2019-02-26T07:47:45.646Z,4.30
2019-02-26T07:50:17.224Z,4.30
2019-02-26T07:52:47.226Z,4.30
2019-02-26T07:55:17.451Z,4.30
2019-02-26T07:57:48.926Z,4.30
2019-02-26T08:00:22.570Z,4.30
2019-02-26T08:02:53.589Z,4.30
2019-02-26T08:05:23.868Z,4.30
2019-02-26T08:07:55.806Z,4.40
2019-02-26T08:10:23.113Z,4.40
2019-02-26T08:12:51.944Z,4.30
2019-02-26T08:15:20.932Z,4.40
2019-02-26T08:17:53.211Z,4.30
2019-02-26T08:20:20.485Z,4.30
2019-02-26T08:22:51.361Z,4.20
2019-02-26T08:25:19.941Z,4.30
2019-02-26T08:27:49.904Z,4.20
2019-02-26T08:30:22.914Z,4.20
2019-02-26T08:32:53.578Z,4.20
2019-02-26T08:35:20.479Z,4.20
2019-02-26T08:37:50.345Z,4.20
2019-02-26T08:40:19.318Z,4.20
2019-02-26T08:42:48.226Z,4.20
2019-02-26T08:45:23.601Z,4.20
2019-02-26T08:47:52.185Z,4.20
2019-02-26T08:50:21.089Z,4.10
2019-02-26T08:52:52.401Z,4.10
2019-02-26T08:55:22.273Z,4.20
2019-02-26T08:57:51.956Z,4.20
2019-02-26T09:00:22.357Z,4.20
2019-02-26T09:02:53.936Z,4.20
2019-02-26T09:05:23.957Z,4.20
2019-02-26T09:07:52.450Z,4.20
2019-02-26T09:10:23.395Z,4.30
2019-02-26T09:12:52.264Z,4.30
2019-02-26T09:15:22.136Z,4.30
2019-02-26T09:17:51.152Z,4.40
2019-02-26T09:20:21.290Z,4.40
2019-02-26T09:22:52.977Z,4.40
2019-02-26T09:25:23.341Z,4.40
2019-02-26T09:27:51.285Z,4.40
2019-02-26T09:30:20.485Z,4.40
2019-02-26T09:32:49.511Z,4.40
2019-02-26T09:35:24.578Z,4.40
2019-02-26T09:37:52.599Z,4.50
2019-02-26T09:40:23.731Z,4.50
2019-02-26T09:42:54.667Z,4.60
2019-02-26T09:45:29.949Z,4.60
2019-02-26T09:47:58.376Z,4.60
2019-02-26T09:50:27.505Z,4.70
2019-02-26T09:52:58.999Z,4.80
2019-02-26T09:55:26.989Z,4.90
2019-02-26T09:57:55.885Z,4.90
2019-02-26T10:00:27.027Z,4.90
2019-02-26T10:02:55.440Z,4.90
2019-02-26T10:05:24.350Z,4.90
2019-02-26T10:07:56.481Z,5.00
2019-02-26T10:10:27.653Z,5.20
2019-02-26T10:12:57.400Z,5.30
2019-02-26T10:15:25.301Z,5.30
2019-02-26T10:17:56.185Z,5.50
2019-02-26T10:20:28.611Z,5.70
2019-02-26T10:22:58.636Z,6.00
2019-02-26T10:25:31.027Z,6.00
2019-02-26T10:27:57.648Z,5.90
2019-02-26T10:30:28.353Z,6.00
2019-02-26T10:33:01.953Z,6.00
2019-02-26T10:35:33.272Z,5.80
2019-02-26T10:38:02.222Z,5.70
2019-02-26T10:40:35.163Z,5.60
2019-02-26T10:43:01.552Z,5.50
2019-02-26T10:45:36.056Z,5.40
2019-02-26T10:48:03.720Z,5.40
2019-02-26T10:50:32.628Z,5.40
2019-02-26T10:53:07.328Z,5.30
2019-02-26T10:55:38.383Z,5.10
2019-02-26T10:58:06.978Z,5.00
2019-02-26T11:00:35.346Z,4.90
2019-02-26T11:03:03.718Z,4.80
2019-02-26T11:05:32.728Z,4.80
2019-02-26T11:08:05.397Z,4.70
2019-02-26T11:10:34.115Z,4.70
2019-02-26T11:13:02.725Z,4.60
2019-02-26T11:15:33.911Z,4.60
2019-02-26T11:18:02.179Z,4.50
2019-02-26T11:20:34.056Z,4.50
2019-02-26T11:23:03.526Z,4.50
2019-02-26T11:25:32.300Z,4.50
2019-02-26T11:28:02.552Z,4.50
2019-02-26T11:30:32.292Z,4.50
2019-02-26T11:33:03.099Z,4.50
2019-02-26T11:35:31.798Z,4.40
2019-02-26T11:38:00.814Z,4.40
2019-02-26T11:40:30.615Z,4.50
2019-02-26T11:43:04.464Z,4.50
2019-02-26T11:45:32.376Z,4.50
2019-02-26T11:48:03.795Z,4.50
2019-02-26T11:50:31.698Z,4.50
2019-02-26T11:53:00.600Z,4.50
2019-02-26T11:55:31.994Z,4.50
2019-02-26T11:58:00.155Z,4.40
2019-02-26T12:00:39.170Z,4.40
2019-02-26T12:03:06.874Z,4.40
2019-02-26T12:05:38.671Z,4.40
2019-02-26T12:08:06.430Z,4.40
2019-02-26T12:10:37.981Z,4.40
2019-02-26T12:13:06.090Z,4.50
2019-02-26T12:15:36.304Z,4.40
2019-02-26T12:18:05.542Z,4.40
2019-02-26T12:20:35.585Z,4.40
2019-02-26T12:23:07.785Z,4.50
2019-02-26T12:25:35.628Z,4.50
2019-02-26T12:28:05.506Z,4.40
2019-02-26T12:30:37.469Z,4.40
2019-02-26T12:33:07.701Z,4.40
2019-02-26T12:35:37.898Z,4.40
2019-02-26T12:38:17.467Z,4.40
2019-02-26T12:40:40.300Z,4.40
2019-02-26T12:43:09.126Z,4.30
2019-02-26T12:45:40.522Z,4.40
2019-02-26T12:48:10.217Z,4.30
2019-02-26T12:50:40.595Z,4.40
2019-02-26T12:53:12.719Z,4.30
2019-02-26T12:55:42.314Z,4.40
2019-02-26T12:58:14.317Z,4.30
2019-02-26T13:00:42.315Z,4.40
2019-02-26T13:05:44.890Z,4.50
2019-02-26T13:08:15.974Z,4.50
2019-02-26T13:10:46.634Z,4.50
2019-02-26T13:13:13.680Z,4.60
2019-02-26T13:15:42.554Z,4.50
2019-02-26T13:18:11.573Z,4.60
2019-02-26T13:20:40.472Z,4.60
2019-02-26T13:23:20.087Z,4.60
2019-02-26T13:25:41.907Z,4.60
2019-02-26T13:28:10.555Z,4.60
2019-02-26T13:30:39.585Z,4.60
2019-02-26T13:33:11.077Z,4.60
2019-02-26T13:35:42.069Z,4.50
2019-02-26T13:38:09.786Z,4.50
2019-02-26T13:40:38.829Z,4.50
2019-02-26T13:43:08.628Z,4.50
2019-02-26T13:45:37.536Z,4.50
2019-02-26T13:48:06.442Z,4.60
2019-02-26T13:50:35.946Z,4.60
2019-02-26T13:53:05.456Z,4.60
2019-02-26T13:55:34.392Z,4.60
2019-02-26T13:58:11.374Z,4.60
2019-02-26T14:00:33.850Z,4.60
2019-02-26T14:03:04.099Z,4.60
2019-02-26T14:05:38.216Z,4.50
2019-02-26T14:08:03.947Z,4.50
2019-02-26T14:10:32.852Z,4.50
2019-02-26T14:13:03.774Z,4.40
2019-02-26T14:15:32.289Z,4.50
2019-02-26T14:18:01.214Z,4.50
2019-02-26T14:20:30.125Z,4.50
2019-02-26T14:22:59.029Z,4.50
2019-02-26T14:25:27.936Z,4.50
2019-02-26T14:27:57.254Z,4.50
2019-02-26T14:30:26.164Z,4.50
2019-02-26T14:32:55.069Z,4.50
2019-02-26T14:35:23.983Z,4.40
2019-02-26T14:37:52.886Z,4.30
2019-02-26T14:40:22.488Z,4.30
2019-02-26T14:42:51.420Z,4.20
2019-02-26T14:45:27.591Z,4.20
2019-02-26T14:47:56.501Z,4.20
2019-02-26T14:50:26.497Z,4.10
2019-02-26T14:52:55.646Z,4.20
2019-02-26T14:55:24.656Z,4.20
2019-02-26T14:57:53.665Z,4.20
2019-02-26T15:00:33.300Z,4.20
2019-02-26T15:03:02.230Z,4.00
2019-02-26T15:05:31.061Z,4.00
2019-02-26T15:07:59.940Z,4.00
2019-02-26T15:10:28.848Z,4.00
2019-02-26T15:12:58.064Z,4.00
2019-02-26T15:15:27.082Z,4.00
2019-02-26T15:17:55.984Z,3.90
2019-02-26T15:20:25.815Z,3.90
2019-02-26T15:22:54.719Z,3.90
2019-02-26T15:25:33.537Z,3.80
2019-02-26T15:28:05.342Z,3.70
2019-02-26T15:30:32.988Z,3.70
2019-02-26T15:33:10.530Z,3.70
2019-02-26T15:35:32.459Z,3.70
2019-02-26T15:38:01.571Z,3.60
2019-02-26T15:40:30.464Z,3.60
2019-02-26T15:42:59.386Z,3.60
2019-02-26T15:45:29.665Z,3.60
2019-02-26T15:47:58.740Z,3.60
2019-02-26T15:50:27.646Z,3.60
2019-02-26T15:52:56.552Z,3.60
2019-02-26T15:55:29.770Z,3.60
2019-02-26T15:58:03.009Z,3.60
2019-02-26T16:00:29.415Z,3.50
2019-02-26T16:02:59.488Z,3.60
2019-02-26T16:05:34.604Z,3.60
2019-02-26T16:08:03.899Z,3.50
2019-02-26T16:10:32.829Z,3.60
2019-02-26T16:13:04.701Z,3.50
2019-02-26T16:15:37.481Z,3.50
2019-02-26T16:18:06.385Z,3.50
2019-02-26T16:20:35.292Z,3.50
2019-02-26T16:23:04.223Z,3.50
2019-02-26T16:25:33.130Z,3.50
2019-02-26T16:28:02.042Z,3.50
2019-02-26T16:30:30.948Z,3.50
2019-02-26T16:32:59.852Z,3.50
2019-02-26T16:35:28.762Z,3.50
2019-02-26T16:37:57.876Z,3.50
2019-02-26T16:40:31.440Z,3.50
2019-02-26T16:42:57.327Z,3.50
2019-02-26T16:45:27.181Z,3.50
2019-02-26T16:47:57.382Z,3.50
2019-02-26T16:50:29.063Z,3.50
2019-02-26T16:53:00.008Z,3.50
2019-02-26T16:55:28.517Z,3.40
2019-02-26T16:58:01.627Z,3.40
2019-02-26T17:00:33.419Z,3.40
2019-02-26T17:03:02.404Z,3.40
2019-02-26T17:05:31.314Z,3.40
2019-02-26T17:08:00.221Z,3.40
2019-02-26T17:10:30.693Z,3.40
2019-02-26T17:13:02.298Z,3.40
2019-02-26T17:15:37.740Z,3.40
2019-02-26T17:18:09.574Z,3.40
2019-02-26T17:20:37.654Z,3.40
2019-02-26T17:23:06.664Z,3.40
2019-02-26T17:25:35.674Z,3.40
2019-02-26T17:28:04.749Z,3.50
2019-02-26T17:30:34.005Z,3.40
2019-02-26T17:33:02.909Z,3.40
2019-02-26T17:35:31.923Z,3.40
2019-02-26T17:38:00.827Z,3.40
2019-02-26T17:40:29.841Z,3.30
2019-02-26T17:42:59.156Z,3.30
2019-02-26T17:45:30.415Z,3.30
2019-02-26T17:47:59.569Z,3.30
2019-02-26T17:50:39.080Z,3.30
2019-02-26T17:53:08.294Z,3.30
2019-02-26T17:55:37.920Z,3.30
2019-02-26T17:58:09.741Z,3.30
2019-02-26T18:00:39.010Z,3.40
2019-02-26T18:03:07.917Z,3.40
2019-02-26T18:05:39.385Z,3.40
2019-02-26T18:08:07.356Z,3.40
2019-02-26T18:10:36.764Z,3.40
2019-02-26T18:13:06.006Z,3.50
2019-02-26T18:15:34.913Z,3.50
2019-02-26T18:18:03.923Z,3.50
2019-02-26T18:20:32.829Z,3.50
2019-02-26T18:23:01.828Z,3.50
2019-02-26T18:25:30.750Z,3.50
2019-02-26T18:27:59.859Z,3.60
2019-02-26T18:30:29.995Z,3.50
2019-02-26T18:32:59.359Z,3.60
2019-02-26T18:35:28.432Z,3.60
2019-02-26T18:37:57.334Z,3.60
2019-02-26T18:40:28.358Z,3.60
2019-02-26T18:42:56.786Z,3.60
2019-02-26T18:45:28.826Z,3.60
2019-02-26T18:47:58.081Z,3.60
2019-02-26T18:50:28.526Z,3.60
2019-02-26T18:52:58.632Z,3.60
2019-02-26T18:55:31.500Z,3.60
2019-02-26T18:57:58.522Z,3.60
2019-02-26T19:00:29.682Z,3.60
2019-02-26T19:02:57.877Z,3.60
2019-02-26T19:05:28.643Z,3.60
2019-02-26T19:07:57.977Z,3.60
2019-02-26T19:10:27.051Z,3.50
2019-02-26T19:12:55.963Z,3.60
2019-02-26T19:15:32.854Z,3.50
2019-02-26T19:18:02.708Z,3.50
2019-02-26T19:20:37.420Z,3.50
2019-02-26T19:23:06.328Z,3.50
2019-02-26T19:25:35.237Z,3.60
2019-02-26T19:28:04.247Z,3.60
2019-02-26T19:30:36.729Z,3.50
2019-02-26T19:33:03.700Z,3.50
2019-02-26T19:35:35.149Z,3.40
2019-02-26T19:38:04.584Z,3.40
2019-02-26T19:40:45.266Z,3.40
2019-02-26T19:43:14.169Z,3.40
2019-02-26T19:45:44.763Z,3.40
2019-02-26T19:48:14.605Z,3.40
2019-02-26T19:50:47.837Z,3.40
2019-02-26T19:53:14.099Z,3.40
2019-02-26T19:55:48.820Z,3.40
2019-02-26T19:58:16.008Z,3.40
2019-02-26T20:00:44.918Z,3.40
2019-02-26T20:03:15.553Z,3.30
2019-02-26T20:05:46.522Z,3.40
2019-02-26T20:08:15.024Z,3.40
2019-02-26T20:10:47.728Z,3.30
2019-02-26T20:13:14.471Z,3.30
2019-02-26T20:15:43.377Z,3.30
2019-02-26T20:18:20.028Z,3.30
2019-02-26T20:20:45.691Z,3.20
2019-02-26T20:23:13.480Z,3.30
2019-02-26T20:25:43.419Z,3.30
2019-02-26T20:28:12.322Z,3.30
2019-02-26T20:30:41.328Z,3.20
2019-02-26T20:33:10.236Z,3.30
2019-02-26T20:35:39.247Z,3.20
2019-02-26T20:38:08.153Z,3.20
2019-02-26T20:40:37.060Z,3.20
2019-02-26T20:43:05.970Z,3.20
2019-02-26T20:45:34.877Z,3.20
2019-02-26T20:48:04.805Z,3.20
2019-02-26T20:50:33.921Z,3.20
2019-02-26T20:53:05.694Z,3.20
2019-02-26T20:55:33.864Z,3.20
2019-02-26T20:58:02.898Z,3.20
2019-02-26T21:00:31.905Z,3.10
2019-02-26T21:03:00.812Z,3.10
2019-02-26T21:05:29.721Z,3.10
2019-02-26T21:07:59.005Z,3.20
2019-02-26T21:10:28.149Z,3.20
2019-02-26T21:12:57.058Z,3.10
2019-02-26T21:15:26.385Z,3.20
2019-02-26T21:17:57.857Z,3.20
2019-02-26T21:20:25.829Z,3.20
2019-02-26T21:22:55.513Z,3.20
2019-02-26T21:25:24.668Z,3.10
2019-02-26T21:27:53.575Z,3.10
2019-02-26T21:30:24.430Z,3.10
2019-02-26T21:32:53.335Z,3.10
2019-02-26T21:35:22.242Z,3.00
2019-02-26T21:37:52.940Z,3.00
2019-02-26T21:40:21.904Z,3.00
2019-02-26T21:42:50.808Z,2.90
2019-02-26T21:45:19.823Z,2.90
2019-02-26T21:47:48.828Z,2.90
2019-02-26T21:50:22.082Z,2.90
2019-02-26T21:53:03.504Z,2.80
2019-02-26T21:55:18.830Z,2.70
2019-02-26T21:57:47.839Z,2.60
2019-02-26T22:00:20.293Z,2.60
2019-02-26T22:02:52.089Z,2.60
2019-02-26T22:05:20.230Z,2.50
2019-02-26T22:07:52.005Z,2.60
2019-02-26T22:10:21.078Z,2.60
2019-02-26T22:12:49.986Z,2.50
2019-02-26T22:15:18.893Z,2.60
2019-02-26T22:17:47.908Z,2.50
2019-02-26T22:20:23.622Z,2.40
2019-02-26T22:22:48.951Z,2.50
2019-02-26T22:25:18.211Z,2.50
2019-02-26T22:27:47.216Z,2.50
2019-02-26T22:30:21.541Z,2.50
2019-02-26T22:32:48.309Z,2.50
2019-02-26T22:35:17.220Z,2.50
2019-02-26T22:37:46.229Z,2.50
2019-02-26T22:40:15.461Z,2.50
2019-02-26T22:42:44.349Z,2.50
2019-02-26T22:45:14.462Z,2.50
2019-02-26T22:47:44.345Z,2.50
2019-02-26T22:50:17.722Z,2.50
2019-02-26T22:52:46.635Z,2.50
2019-02-26T22:55:17.311Z,2.60
2019-02-26T22:57:45.777Z,2.50
2019-02-26T23:00:28.044Z,2.50
2019-02-26T23:02:56.999Z,2.40
2019-02-26T23:05:26.151Z,2.30
2019-02-26T23:07:55.223Z,2.30
2019-02-26T23:10:24.711Z,2.20
2019-02-26T23:12:54.370Z,2.10
2019-02-26T23:15:23.483Z,2.10
2019-02-26T23:17:52.374Z,2.10
2019-02-26T23:20:21.403Z,2.00
2019-02-26T23:22:50.512Z,2.00
2019-02-26T23:25:19.556Z,2.00
2019-02-26T23:27:49.285Z,2.00
2019-02-26T23:30:18.670Z,1.90
2019-02-26T23:32:47.576Z,1.90
2019-02-26T23:35:16.690Z,1.90
2019-02-26T23:37:45.699Z,1.90
2019-02-26T23:40:15.263Z,1.90
2019-02-26T23:42:44.128Z,1.90
2019-02-26T23:45:16.619Z,1.90
2019-02-26T23:47:45.631Z,1.90
2019-02-26T23:50:14.846Z,1.90
2019-02-26T23:52:43.853Z,1.90
2019-02-26T23:55:13.326Z,1.90
2019-02-26T23:57:43.102Z,1.90
